sensor_id;sensor_type;location;lat;lon;timestamp;temperature;humidity
66343;DHT22;53144;51.524;5.080;2023-12-20T00:01:39;5.97;99.99
66343;DHT22;53144;51.524;5.080;2023-12-20T00:04:05;5.94;99.99
66343;DHT22;53144;51.524;5.080;2023-12-20T00:06:31;5.88;99.99
66343;DHT22;53144;51.524;5.080;2023-12-20T00:08:56;5.84;99.99
66343;DHT22;53144;51.524;5.080;2023-12-20T00:11:23;5.84;99.99
66343;DHT22;53144;51.524;5.080;2023-12-20T00:13:48;5.78;99.99
66343;DHT22;53144;51.524;5.080;2023-12-20T00:16:14;5.74;99.99
66343;DHT22;53144;51.524;5.080;2023-12-20T00:18:39;5.70;99.99
66343;DHT22;53144;51.524;5.080;2023-12-20T00:21:04;5.74;99.99
66343;DHT22;53144;51.524;5.080;2023-12-20T00:23:30;5.74;99.99
66343;DHT22;53144;51.524;5.080;2023-12-20T00:25:55;5.68;99.99
66343;DHT22;53144;51.524;5.080;2023-12-20T00:28:22;5.68;99.99
66343;DHT22;53144;51.524;5.080;2023-12-20T00:30:47;5.60;99.99
66343;DHT22;53144;51.524;5.080;2023-12-20T00:33:13;5.53;99.99
66343;DHT22;53144;51.524;5.080;2023-12-20T00:35:38;5.53;99.99
66343;DHT22;53144;51.524;5.080;2023-12-20T00:38:04;5.61;99.99
66343;DHT22;53144;51.524;5.080;2023-12-20T00:40:30;5.64;99.99
66343;DHT22;53144;51.524;5.080;2023-12-20T00:42:55;5.63;99.99
66343;DHT22;53144;51.524;5.080;2023-12-20T00:45:24;5.60;99.99
66343;DHT22;53144;51.524;5.080;2023-12-20T00:47:49;5.54;99.99
66343;DHT22;53144;51.524;5.080;2023-12-20T00:50:15;5.55;99.99
66343;DHT22;53144;51.524;5.080;2023-12-20T00:52:40;5.55;99.99
66343;DHT22;53144;51.524;5.080;2023-12-20T00:55:06;5.57;99.99
66343;DHT22;53144;51.524;5.080;2023-12-20T00:57:31;5.53;99.99
66343;DHT22;53144;51.524;5.080;2023-12-20T00:59:57;5.57;99.99
66343;DHT22;53144;51.524;5.080;2023-12-20T01:02:22;5.58;99.99
66343;DHT22;53144;51.524;5.080;2023-12-20T01:04:48;5.58;99.99
66343;DHT22;53144;51.524;5.080;2023-12-20T01:07:13;5.61;99.99
66343;DHT22;53144;51.524;5.080;2023-12-20T01:09:38;5.70;99.99
66343;DHT22;53144;51.524;5.080;2023-12-20T01:12:04;5.65;99.99
66343;DHT22;53144;51.524;5.080;2023-12-20T01:14:29;5.58;99.99
66343;DHT22;53144;51.524;5.080;2023-12-20T01:16:55;5.57;99.99
66343;DHT22;53144;51.524;5.080;2023-12-20T01:19:20;5.65;99.99
66343;DHT22;53144;51.524;5.080;2023-12-20T01:21:46;5.65;99.99
66343;DHT22;53144;51.524;5.080;2023-12-20T01:24:12;5.58;99.99
66343;DHT22;53144;51.524;5.080;2023-12-20T01:26:37;5.65;99.99
66343;DHT22;53144;51.524;5.080;2023-12-20T01:29:03;5.57;99.99
66343;DHT22;53144;51.524;5.080;2023-12-20T01:31:28;5.55;99.99
66343;DHT22;53144;51.524;5.080;2023-12-20T01:33:53;5.60;99.99
66343;DHT22;53144;51.524;5.080;2023-12-20T01:36:19;5.54;99.99
66343;DHT22;53144;51.524;5.080;2023-12-20T01:38:45;5.54;99.99
66343;DHT22;53144;51.524;5.080;2023-12-20T01:41:10;5.55;99.99
66343;DHT22;53144;51.524;5.080;2023-12-20T01:43:35;5.57;99.99
66343;DHT22;53144;51.524;5.080;2023-12-20T01:46:01;5.50;99.99
66343;DHT22;53144;51.524;5.080;2023-12-20T01:48:28;5.58;99.99
66343;DHT22;53144;51.524;5.080;2023-12-20T01:50:54;5.54;99.99
66343;DHT22;53144;51.524;5.080;2023-12-20T01:53:22;5.50;99.99
66343;DHT22;53144;51.524;5.080;2023-12-20T01:55:50;5.51;99.99
66343;DHT22;53144;51.524;5.080;2023-12-20T01:58:17;5.60;99.99
66343;DHT22;53144;51.524;5.080;2023-12-20T02:00:42;5.63;99.99
66343;DHT22;53144;51.524;5.080;2023-12-20T02:03:08;5.75;99.99
66343;DHT22;53144;51.524;5.080;2023-12-20T02:05:35;5.73;99.99
66343;DHT22;53144;51.524;5.080;2023-12-20T02:08:01;5.75;99.99
66343;DHT22;53144;51.524;5.080;2023-12-20T02:10:27;5.74;99.99
66343;DHT22;53144;51.524;5.080;2023-12-20T02:12:52;5.74;99.99
66343;DHT22;53144;51.524;5.080;2023-12-20T02:15:18;5.67;99.99
66343;DHT22;53144;51.524;5.080;2023-12-20T02:17:44;5.64;99.99
66343;DHT22;53144;51.524;5.080;2023-12-20T02:20:10;5.55;99.99
66343;DHT22;53144;51.524;5.080;2023-12-20T02:22:36;5.60;99.99
66343;DHT22;53144;51.524;5.080;2023-12-20T02:25:01;5.61;99.99
66343;DHT22;53144;51.524;5.080;2023-12-20T02:27:26;5.61;99.99
66343;DHT22;53144;51.524;5.080;2023-12-20T02:29:52;5.60;99.99
66343;DHT22;53144;51.524;5.080;2023-12-20T02:32:18;5.60;99.99
66343;DHT22;53144;51.524;5.080;2023-12-20T02:34:44;5.65;99.99
66343;DHT22;53144;51.524;5.080;2023-12-20T02:37:10;5.65;99.99
66343;DHT22;53144;51.524;5.080;2023-12-20T02:39:35;5.67;99.99
66343;DHT22;53144;51.524;5.080;2023-12-20T02:42:00;5.67;99.99
66343;DHT22;53144;51.524;5.080;2023-12-20T02:44:26;5.64;99.99
66343;DHT22;53144;51.524;5.080;2023-12-20T02:46:54;5.57;99.99
66343;DHT22;53144;51.524;5.080;2023-12-20T02:49:19;5.61;99.99
66343;DHT22;53144;51.524;5.080;2023-12-20T02:51:45;5.55;99.99
66343;DHT22;53144;51.524;5.080;2023-12-20T02:54:11;5.57;99.99
66343;DHT22;53144;51.524;5.080;2023-12-20T02:56:37;5.51;99.99
66343;DHT22;53144;51.524;5.080;2023-12-20T02:59:02;5.50;99.99
66343;DHT22;53144;51.524;5.080;2023-12-20T03:01:30;5.50;99.99
66343;DHT22;53144;51.524;5.080;2023-12-20T03:03:56;5.53;99.99
66343;DHT22;53144;51.524;5.080;2023-12-20T03:06:24;5.63;99.99
66343;DHT22;53144;51.524;5.080;2023-12-20T03:08:49;5.61;99.99
66343;DHT22;53144;51.524;5.080;2023-12-20T03:11:15;5.68;99.99
66343;DHT22;53144;51.524;5.080;2023-12-20T03:13:40;5.70;99.99
66343;DHT22;53144;51.524;5.080;2023-12-20T03:16:09;5.74;99.99
66343;DHT22;53144;51.524;5.080;2023-12-20T03:18:35;5.79;99.99
66343;DHT22;53144;51.524;5.080;2023-12-20T03:21:00;5.73;99.99
66343;DHT22;53144;51.524;5.080;2023-12-20T03:23:26;5.75;99.99
66343;DHT22;53144;51.524;5.080;2023-12-20T03:25:52;5.75;99.99
66343;DHT22;53144;51.524;5.080;2023-12-20T03:28:17;5.81;99.99
66343;DHT22;53144;51.524;5.080;2023-12-20T03:30:43;5.85;99.99
66343;DHT22;53144;51.524;5.080;2023-12-20T03:33:12;5.92;99.99
66343;DHT22;53144;51.524;5.080;2023-12-20T03:35:38;5.94;99.99
66343;DHT22;53144;51.524;5.080;2023-12-20T03:38:03;6.01;99.99
66343;DHT22;53144;51.524;5.080;2023-12-20T03:40:29;6.01;99.99
66343;DHT22;53144;51.524;5.080;2023-12-20T03:42:54;6.05;99.99
66343;DHT22;53144;51.524;5.080;2023-12-20T03:45:19;6.16;99.81
66343;DHT22;53144;51.524;5.080;2023-12-20T03:47:45;6.11;99.81
66343;DHT22;53144;51.524;5.080;2023-12-20T03:50:10;6.19;99.51
66343;DHT22;53144;51.524;5.080;2023-12-20T03:52:36;6.22;99.54
66343;DHT22;53144;51.524;5.080;2023-12-20T03:55:01;6.16;99.89
66343;DHT22;53144;51.524;5.080;2023-12-20T03:57:26;6.25;99.55
66343;DHT22;53144;51.524;5.080;2023-12-20T03:59:52;6.29;99.31
66343;DHT22;53144;51.524;5.080;2023-12-20T04:02:17;6.30;99.29
66343;DHT22;53144;51.524;5.080;2023-12-20T04:04:43;6.32;99.21
66343;DHT22;53144;51.524;5.080;2023-12-20T04:07:08;6.36;99.24
66343;DHT22;53144;51.524;5.080;2023-12-20T04:09:34;6.37;98.99
66343;DHT22;53144;51.524;5.080;2023-12-20T04:11:59;6.43;99.00
66343;DHT22;53144;51.524;5.080;2023-12-20T04:14:24;6.43;98.67
66343;DHT22;53144;51.524;5.080;2023-12-20T04:16:50;6.39;98.97
66343;DHT22;53144;51.524;5.080;2023-12-20T04:19:15;6.40;99.16
66343;DHT22;53144;51.524;5.080;2023-12-20T04:21:41;6.42;99.01
66343;DHT22;53144;51.524;5.080;2023-12-20T04:24:06;6.44;99.00
66343;DHT22;53144;51.524;5.080;2023-12-20T04:26:32;6.42;99.16
66343;DHT22;53144;51.524;5.080;2023-12-20T04:28:57;6.50;98.85
66343;DHT22;53144;51.524;5.080;2023-12-20T04:31:23;6.50;98.96
66343;DHT22;53144;51.524;5.080;2023-12-20T04:33:49;6.39;99.10
66343;DHT22;53144;51.524;5.080;2023-12-20T04:36:14;6.39;98.94
66343;DHT22;53144;51.524;5.080;2023-12-20T04:38:40;6.44;98.95
66343;DHT22;53144;51.524;5.080;2023-12-20T04:41:05;6.39;98.84
66343;DHT22;53144;51.524;5.080;2023-12-20T04:43:30;6.23;99.16
66343;DHT22;53144;51.524;5.080;2023-12-20T04:45:56;6.16;99.46
66343;DHT22;53144;51.524;5.080;2023-12-20T04:48:21;6.16;99.29
66343;DHT22;53144;51.524;5.080;2023-12-20T04:50:47;6.15;99.35
66343;DHT22;53144;51.524;5.080;2023-12-20T04:53:12;6.15;99.15
66343;DHT22;53144;51.524;5.080;2023-12-20T04:55:37;6.06;99.37
66343;DHT22;53144;51.524;5.080;2023-12-20T04:58:04;6.05;99.11
66343;DHT22;53144;51.524;5.080;2023-12-20T05:00:29;6.01;99.22
66343;DHT22;53144;51.524;5.080;2023-12-20T05:02:55;5.98;99.01
66343;DHT22;53144;51.524;5.080;2023-12-20T05:05:21;5.95;99.10
66343;DHT22;53144;51.524;5.080;2023-12-20T05:07:47;5.94;99.03
66343;DHT22;53144;51.524;5.080;2023-12-20T05:10:12;5.85;99.19
66343;DHT22;53144;51.524;5.080;2023-12-20T05:12:37;5.81;99.34
66343;DHT22;53144;51.524;5.080;2023-12-20T05:15:05;5.75;99.43
66343;DHT22;53144;51.524;5.080;2023-12-20T05:17:31;5.74;99.59
66343;DHT22;53144;51.524;5.080;2023-12-20T05:19:56;5.77;99.43
66343;DHT22;53144;51.524;5.080;2023-12-20T05:22:22;5.71;99.27
66343;DHT22;53144;51.524;5.080;2023-12-20T05:24:47;5.68;99.24
66343;DHT22;53144;51.524;5.080;2023-12-20T05:27:12;5.68;99.06
66343;DHT22;53144;51.524;5.080;2023-12-20T05:29:38;5.63;99.10
66343;DHT22;53144;51.524;5.080;2023-12-20T05:32:03;5.64;99.03
66343;DHT22;53144;51.524;5.080;2023-12-20T05:34:30;5.58;99.27
66343;DHT22;53144;51.524;5.080;2023-12-20T05:36:55;5.57;99.16
66343;DHT22;53144;51.524;5.080;2023-12-20T05:39:24;5.55;99.26
66343;DHT22;53144;51.524;5.080;2023-12-20T05:41:49;5.46;99.31
66343;DHT22;53144;51.524;5.080;2023-12-20T05:44:15;5.40;99.54
66343;DHT22;53144;51.524;5.080;2023-12-20T05:46:40;5.42;99.67
66343;DHT22;53144;51.524;5.080;2023-12-20T05:49:06;5.40;99.60
66343;DHT22;53144;51.524;5.080;2023-12-20T05:51:31;5.37;99.51
66343;DHT22;53144;51.524;5.080;2023-12-20T05:53:56;5.34;99.66
66343;DHT22;53144;51.524;5.080;2023-12-20T05:56:22;5.40;99.54
66343;DHT22;53144;51.524;5.080;2023-12-20T05:58:47;5.33;99.68
66343;DHT22;53144;51.524;5.080;2023-12-20T06:01:14;5.34;99.38
66343;DHT22;53144;51.524;5.080;2023-12-20T06:03:42;5.33;99.27
66343;DHT22;53144;51.524;5.080;2023-12-20T06:06:08;5.33;99.47
66343;DHT22;53144;51.524;5.080;2023-12-20T06:08:33;5.26;99.58
66343;DHT22;53144;51.524;5.080;2023-12-20T06:10:59;5.36;99.38
66343;DHT22;53144;51.524;5.080;2023-12-20T06:13:25;5.39;99.09
66343;DHT22;53144;51.524;5.080;2023-12-20T06:15:50;5.34;99.14
66343;DHT22;53144;51.524;5.080;2023-12-20T06:18:24;5.29;99.08
66343;DHT22;53144;51.524;5.080;2023-12-20T06:20:50;5.34;99.09
66343;DHT22;53144;51.524;5.080;2023-12-20T06:23:15;5.36;98.98
66343;DHT22;53144;51.524;5.080;2023-12-20T06:25:41;5.37;98.84
66343;DHT22;53144;51.524;5.080;2023-12-20T06:28:06;5.40;98.64
66343;DHT22;53144;51.524;5.080;2023-12-20T06:30:32;5.36;98.69
66343;DHT22;53144;51.524;5.080;2023-12-20T06:32:58;5.39;98.60
66343;DHT22;53144;51.524;5.080;2023-12-20T06:35:24;5.42;98.45
66343;DHT22;53144;51.524;5.080;2023-12-20T06:37:49;5.40;98.61
66343;DHT22;53144;51.524;5.080;2023-12-20T06:40:15;5.44;98.30
66343;DHT22;53144;51.524;5.080;2023-12-20T06:42:41;5.42;98.32
66343;DHT22;53144;51.524;5.080;2023-12-20T06:45:06;5.47;98.20
66343;DHT22;53144;51.524;5.080;2023-12-20T06:47:32;5.44;98.15
66343;DHT22;53144;51.524;5.080;2023-12-20T06:49:57;5.47;98.01
66343;DHT22;53144;51.524;5.080;2023-12-20T06:52:23;5.43;98.10
66343;DHT22;53144;51.524;5.080;2023-12-20T06:54:48;5.36;98.47
66343;DHT22;53144;51.524;5.080;2023-12-20T06:57:13;5.40;98.35
66343;DHT22;53144;51.524;5.080;2023-12-20T06:59:40;5.44;98.30
66343;DHT22;53144;51.524;5.080;2023-12-20T07:02:06;5.37;98.41
66343;DHT22;53144;51.524;5.080;2023-12-20T07:04:31;5.32;98.56
66343;DHT22;53144;51.524;5.080;2023-12-20T07:06:57;5.36;98.57
66343;DHT22;53144;51.524;5.080;2023-12-20T07:09:28;5.34;98.45
66343;DHT22;53144;51.524;5.080;2023-12-20T07:11:53;5.37;98.35
66343;DHT22;53144;51.524;5.080;2023-12-20T07:14:18;5.44;98.26
66343;DHT22;53144;51.524;5.080;2023-12-20T07:16:44;5.48;98.25
66343;DHT22;53144;51.524;5.080;2023-12-20T07:19:09;5.64;97.64
66343;DHT22;53144;51.524;5.080;2023-12-20T07:21:35;5.74;97.20
66343;DHT22;53144;51.524;5.080;2023-12-20T07:24:00;5.81;96.91
66343;DHT22;53144;51.524;5.080;2023-12-20T07:26:26;5.85;97.69
66343;DHT22;53144;51.524;5.080;2023-12-20T07:28:54;5.84;97.27
66343;DHT22;53144;51.524;5.080;2023-12-20T07:31:20;5.82;97.27
66343;DHT22;53144;51.524;5.080;2023-12-20T07:33:45;5.90;97.04
66343;DHT22;53144;51.524;5.080;2023-12-20T07:36:12;5.95;96.97
66343;DHT22;53144;51.524;5.080;2023-12-20T07:38:37;5.90;97.39
66343;DHT22;53144;51.524;5.080;2023-12-20T07:41:03;5.92;97.20
66343;DHT22;53144;51.524;5.080;2023-12-20T07:43:28;5.95;97.46
66343;DHT22;53144;51.524;5.080;2023-12-20T07:45:53;5.97;97.24
66343;DHT22;53144;51.524;5.080;2023-12-20T07:48:19;5.92;97.70
66343;DHT22;53144;51.524;5.080;2023-12-20T07:50:44;5.94;97.67
66343;DHT22;53144;51.524;5.080;2023-12-20T07:53:10;5.94;97.75
66343;DHT22;53144;51.524;5.080;2023-12-20T07:55:35;5.94;97.88
66343;DHT22;53144;51.524;5.080;2023-12-20T07:58:00;5.99;97.66
66343;DHT22;53144;51.524;5.080;2023-12-20T08:00:26;5.98;97.60
66343;DHT22;53144;51.524;5.080;2023-12-20T08:02:52;5.95;97.63
66343;DHT22;53144;51.524;5.080;2023-12-20T08:05:18;5.98;97.59
66343;DHT22;53144;51.524;5.080;2023-12-20T08:07:44;6.04;97.74
66343;DHT22;53144;51.524;5.080;2023-12-20T08:10:10;6.04;97.80
66343;DHT22;53144;51.524;5.080;2023-12-20T08:12:35;6.04;97.60
66343;DHT22;53144;51.524;5.080;2023-12-20T08:15:01;6.09;97.35
66343;DHT22;53144;51.524;5.080;2023-12-20T08:17:27;6.06;97.70
66343;DHT22;53144;51.524;5.080;2023-12-20T08:19:52;6.12;97.39
66343;DHT22;53144;51.524;5.080;2023-12-20T08:22:18;6.15;97.20
66343;DHT22;53144;51.524;5.080;2023-12-20T08:24:43;6.29;96.89
66343;DHT22;53144;51.524;5.080;2023-12-20T08:27:09;6.21;96.87
66343;DHT22;53144;51.524;5.080;2023-12-20T08:29:35;6.21;96.86
66343;DHT22;53144;51.524;5.080;2023-12-20T08:32:00;6.25;96.94
66343;DHT22;53144;51.524;5.080;2023-12-20T08:34:26;6.34;97.14
66343;DHT22;53144;51.524;5.080;2023-12-20T08:36:54;6.42;96.59
66343;DHT22;53144;51.524;5.080;2023-12-20T08:39:20;6.47;96.58
66343;DHT22;53144;51.524;5.080;2023-12-20T08:41:45;6.60;96.38
66343;DHT22;53144;51.524;5.080;2023-12-20T08:44:11;6.57;96.40
66343;DHT22;53144;51.524;5.080;2023-12-20T08:46:36;6.66;95.88
66343;DHT22;53144;51.524;5.080;2023-12-20T08:49:02;6.67;95.86
66343;DHT22;53144;51.524;5.080;2023-12-20T08:51:27;6.66;95.86
66343;DHT22;53144;51.524;5.080;2023-12-20T08:53:53;6.69;95.88
66343;DHT22;53144;51.524;5.080;2023-12-20T08:56:18;6.67;96.16
66343;DHT22;53144;51.524;5.080;2023-12-20T08:58:44;6.77;95.63
66343;DHT22;53144;51.524;5.080;2023-12-20T09:01:10;6.74;95.60
66343;DHT22;53144;51.524;5.080;2023-12-20T09:03:36;6.81;95.68
66343;DHT22;53144;51.524;5.080;2023-12-20T09:06:09;6.84;95.86
66343;DHT22;53144;51.524;5.080;2023-12-20T09:08:39;6.83;95.64
66343;DHT22;53144;51.524;5.080;2023-12-20T09:11:06;6.84;95.83
66343;DHT22;53144;51.524;5.080;2023-12-20T09:13:32;6.85;96.24
66343;DHT22;53144;51.524;5.080;2023-12-20T09:15:57;6.81;96.10
66343;DHT22;53144;51.524;5.080;2023-12-20T09:18:23;6.79;96.27
66343;DHT22;53144;51.524;5.080;2023-12-20T09:20:49;6.84;95.77
66343;DHT22;53144;51.524;5.080;2023-12-20T09:23:18;6.85;96.33
66343;DHT22;53144;51.524;5.080;2023-12-20T09:25:44;6.85;96.38
66343;DHT22;53144;51.524;5.080;2023-12-20T09:28:10;6.88;96.53
66343;DHT22;53144;51.524;5.080;2023-12-20T09:30:35;6.84;96.35
66343;DHT22;53144;51.524;5.080;2023-12-20T09:33:05;6.91;96.01
66343;DHT22;53144;51.524;5.080;2023-12-20T09:35:32;6.94;96.19
66343;DHT22;53144;51.524;5.080;2023-12-20T09:38:01;6.95;96.11
66343;DHT22;53144;51.524;5.080;2023-12-20T09:40:26;6.95;95.90
66343;DHT22;53144;51.524;5.080;2023-12-20T09:43:04;7.01;95.53
66343;DHT22;53144;51.524;5.080;2023-12-20T09:45:30;7.01;96.07
66343;DHT22;53144;51.524;5.080;2023-12-20T09:47:57;7.09;95.74
66343;DHT22;53144;51.524;5.080;2023-12-20T09:50:23;7.05;95.49
66343;DHT22;53144;51.524;5.080;2023-12-20T09:52:54;7.11;95.56
66343;DHT22;53144;51.524;5.080;2023-12-20T09:55:25;7.21;95.54
66343;DHT22;53144;51.524;5.080;2023-12-20T09:57:50;7.18;95.52
66343;DHT22;53144;51.524;5.080;2023-12-20T10:00:16;7.21;95.77
66343;DHT22;53144;51.524;5.080;2023-12-20T10:02:57;7.22;95.46
66343;DHT22;53144;51.524;5.080;2023-12-20T10:05:30;7.22;95.40
66343;DHT22;53144;51.524;5.080;2023-12-20T10:07:56;7.28;95.26
66343;DHT22;53144;51.524;5.080;2023-12-20T10:10:22;7.31;94.94
66343;DHT22;53144;51.524;5.080;2023-12-20T10:15:28;7.36;94.97
66343;DHT22;53144;51.524;5.080;2023-12-20T10:17:53;7.41;95.25
66343;DHT22;53144;51.524;5.080;2023-12-20T10:20:19;7.43;94.90
66343;DHT22;53144;51.524;5.080;2023-12-20T10:22:45;7.43;94.85
66343;DHT22;53144;51.524;5.080;2023-12-20T10:25:11;7.48;94.66
66343;DHT22;53144;51.524;5.080;2023-12-20T10:27:37;7.50;95.08
66343;DHT22;53144;51.524;5.080;2023-12-20T10:30:02;7.52;94.93
66343;DHT22;53144;51.524;5.080;2023-12-20T10:32:28;7.55;94.65
66343;DHT22;53144;51.524;5.080;2023-12-20T10:34:54;7.55;94.86
66343;DHT22;53144;51.524;5.080;2023-12-20T10:37:20;7.56;94.79
66343;DHT22;53144;51.524;5.080;2023-12-20T10:39:53;7.52;95.13
66343;DHT22;53144;51.524;5.080;2023-12-20T10:42:24;7.62;94.82
66343;DHT22;53144;51.524;5.080;2023-12-20T10:44:54;7.67;94.70
66343;DHT22;53144;51.524;5.080;2023-12-20T10:47:20;7.60;94.93
66343;DHT22;53144;51.524;5.080;2023-12-20T10:49:46;7.63;95.32
66343;DHT22;53144;51.524;5.080;2023-12-20T10:52:12;7.63;94.99
66343;DHT22;53144;51.524;5.080;2023-12-20T10:54:39;7.60;95.24
66343;DHT22;53144;51.524;5.080;2023-12-20T10:57:05;7.65;95.20
66343;DHT22;53144;51.524;5.080;2023-12-20T10:59:33;7.66;94.80
66343;DHT22;53144;51.524;5.080;2023-12-20T11:02:18;7.67;95.44
66343;DHT22;53144;51.524;5.080;2023-12-20T11:04:50;7.69;94.94
66343;DHT22;53144;51.524;5.080;2023-12-20T11:07:25;7.70;95.05
66343;DHT22;53144;51.524;5.080;2023-12-20T11:10:10;7.67;95.59
66343;DHT22;53144;51.524;5.080;2023-12-20T11:12:52;7.63;96.47
66343;DHT22;53144;51.524;5.080;2023-12-20T11:15:19;7.66;96.03
66343;DHT22;53144;51.524;5.080;2023-12-20T11:17:45;7.67;96.11
66343;DHT22;53144;51.524;5.080;2023-12-20T11:20:13;7.71;96.24
66343;DHT22;53144;51.524;5.080;2023-12-20T11:22:40;7.71;95.52
66343;DHT22;53144;51.524;5.080;2023-12-20T11:25:20;7.77;95.76
66343;DHT22;53144;51.524;5.080;2023-12-20T11:28:09;7.79;95.15
66343;DHT22;53144;51.524;5.080;2023-12-20T11:30:51;7.77;95.61
66343;DHT22;53144;51.524;5.080;2023-12-20T11:33:25;7.81;95.59
66343;DHT22;53144;51.524;5.080;2023-12-20T11:35:51;7.83;95.70
66343;DHT22;53144;51.524;5.080;2023-12-20T11:38:20;7.86;95.30
66343;DHT22;53144;51.524;5.080;2023-12-20T11:40:48;7.89;95.63
66343;DHT22;53144;51.524;5.080;2023-12-20T11:43:35;7.84;95.72
66343;DHT22;53144;51.524;5.080;2023-12-20T11:46:09;7.90;95.62
66343;DHT22;53144;51.524;5.080;2023-12-20T11:48:36;7.91;95.01
66343;DHT22;53144;51.524;5.080;2023-12-20T11:51:02;7.91;95.06
66343;DHT22;53144;51.524;5.080;2023-12-20T11:53:29;7.94;95.02
66343;DHT22;53144;51.524;5.080;2023-12-20T11:55:56;8.00;95.04
66343;DHT22;53144;51.524;5.080;2023-12-20T11:58:22;8.01;95.38
66343;DHT22;53144;51.524;5.080;2023-12-20T12:00:49;8.08;94.45
66343;DHT22;53144;51.524;5.080;2023-12-20T12:03:15;8.18;94.05
66343;DHT22;53144;51.524;5.080;2023-12-20T12:05:41;8.20;94.37
66343;DHT22;53144;51.524;5.080;2023-12-20T12:08:06;8.22;93.88
66343;DHT22;53144;51.524;5.080;2023-12-20T12:10:33;8.24;94.08
66343;DHT22;53144;51.524;5.080;2023-12-20T12:12:59;8.32;94.18
66343;DHT22;53144;51.524;5.080;2023-12-20T12:15:24;8.34;94.01
66343;DHT22;53144;51.524;5.080;2023-12-20T12:17:56;8.37;93.81
66343;DHT22;53144;51.524;5.080;2023-12-20T12:20:23;8.39;93.78
66343;DHT22;53144;51.524;5.080;2023-12-20T12:22:59;8.32;94.09
66343;DHT22;53144;51.524;5.080;2023-12-20T12:25:25;8.37;93.90
66343;DHT22;53144;51.524;5.080;2023-12-20T12:27:51;8.42;93.35
66343;DHT22;53144;51.524;5.080;2023-12-20T12:30:20;8.44;92.99
66343;DHT22;53144;51.524;5.080;2023-12-20T12:32:47;8.41;93.79
66343;DHT22;53144;51.524;5.080;2023-12-20T12:35:14;8.41;93.62
66343;DHT22;53144;51.524;5.080;2023-12-20T12:37:40;8.44;93.99
66343;DHT22;53144;51.524;5.080;2023-12-20T12:42:33;8.42;94.07
66343;DHT22;53144;51.524;5.080;2023-12-20T12:44:59;8.49;93.91
66343;DHT22;53144;51.524;5.080;2023-12-20T12:47:24;8.45;93.52
66343;DHT22;53144;51.524;5.080;2023-12-20T12:49:50;8.45;93.48
66343;DHT22;53144;51.524;5.080;2023-12-20T12:52:17;8.39;93.77
66343;DHT22;53144;51.524;5.080;2023-12-20T12:54:43;8.35;93.84
66343;DHT22;53144;51.524;5.080;2023-12-20T12:57:10;8.31;94.45
66343;DHT22;53144;51.524;5.080;2023-12-20T12:59:36;8.28;94.75
66343;DHT22;53144;51.524;5.080;2023-12-20T13:02:01;8.38;94.26
66343;DHT22;53144;51.524;5.080;2023-12-20T13:04:26;8.34;94.32
66343;DHT22;53144;51.524;5.080;2023-12-20T13:06:52;8.35;94.18
66343;DHT22;53144;51.524;5.080;2023-12-20T13:09:17;8.34;94.49
66343;DHT22;53144;51.524;5.080;2023-12-20T13:11:44;8.34;94.70
66343;DHT22;53144;51.524;5.080;2023-12-20T13:14:09;8.35;94.56
66343;DHT22;53144;51.524;5.080;2023-12-20T13:16:43;8.31;94.75
66343;DHT22;53144;51.524;5.080;2023-12-20T13:19:10;8.30;95.21
66343;DHT22;53144;51.524;5.080;2023-12-20T13:21:35;8.39;95.38
66343;DHT22;53144;51.524;5.080;2023-12-20T13:24:01;8.41;95.15
66343;DHT22;53144;51.524;5.080;2023-12-20T13:26:26;8.35;95.53
66343;DHT22;53144;51.524;5.080;2023-12-20T13:28:52;8.42;95.40
66343;DHT22;53144;51.524;5.080;2023-12-20T13:31:17;8.44;95.32
66343;DHT22;53144;51.524;5.080;2023-12-20T13:33:42;8.38;95.13
66343;DHT22;53144;51.524;5.080;2023-12-20T13:36:08;8.41;95.22
66343;DHT22;53144;51.524;5.080;2023-12-20T13:38:34;8.39;94.85
66343;DHT22;53144;51.524;5.080;2023-12-20T13:40:59;8.44;94.89
66343;DHT22;53144;51.524;5.080;2023-12-20T13:43:25;8.44;94.91
66343;DHT22;53144;51.524;5.080;2023-12-20T13:45:50;8.38;94.85
66343;DHT22;53144;51.524;5.080;2023-12-20T13:48:18;8.44;95.25
66343;DHT22;53144;51.524;5.080;2023-12-20T13:50:44;8.37;95.16
66343;DHT22;53144;51.524;5.080;2023-12-20T13:53:09;8.44;95.22
66343;DHT22;53144;51.524;5.080;2023-12-20T13:55:35;8.39;95.04
66343;DHT22;53144;51.524;5.080;2023-12-20T13:58:00;8.39;95.09
66343;DHT22;53144;51.524;5.080;2023-12-20T14:00:25;8.44;94.75
66343;DHT22;53144;51.524;5.080;2023-12-20T14:02:51;8.38;95.35
66343;DHT22;53144;51.524;5.080;2023-12-20T14:05:17;8.46;95.09
66343;DHT22;53144;51.524;5.080;2023-12-20T14:07:45;8.48;94.47
66343;DHT22;53144;51.524;5.080;2023-12-20T14:10:12;8.49;94.54
66343;DHT22;53144;51.524;5.080;2023-12-20T14:12:41;8.56;94.83
66343;DHT22;53144;51.524;5.080;2023-12-20T14:15:07;8.55;94.78
66343;DHT22;53144;51.524;5.080;2023-12-20T14:17:37;8.55;94.67
66343;DHT22;53144;51.524;5.080;2023-12-20T14:20:04;8.53;94.62
66343;DHT22;53144;51.524;5.080;2023-12-20T14:22:30;8.58;94.52
66343;DHT22;53144;51.524;5.080;2023-12-20T14:24:55;8.52;94.71
66343;DHT22;53144;51.524;5.080;2023-12-20T14:27:22;8.53;94.74
66343;DHT22;53144;51.524;5.080;2023-12-20T14:29:50;8.51;95.09
66343;DHT22;53144;51.524;5.080;2023-12-20T14:32:15;8.53;94.64
66343;DHT22;53144;51.524;5.080;2023-12-20T14:34:41;8.58;94.85
66343;DHT22;53144;51.524;5.080;2023-12-20T14:37:07;8.58;95.07
66343;DHT22;53144;51.524;5.080;2023-12-20T14:39:32;8.52;95.11
66343;DHT22;53144;51.524;5.080;2023-12-20T14:41:58;8.62;94.39
66343;DHT22;53144;51.524;5.080;2023-12-20T14:44:23;8.58;94.62
66343;DHT22;53144;51.524;5.080;2023-12-20T14:46:48;8.65;94.29
66343;DHT22;53144;51.524;5.080;2023-12-20T14:49:14;8.69;93.88
66343;DHT22;53144;51.524;5.080;2023-12-20T14:51:39;8.68;93.91
66343;DHT22;53144;51.524;5.080;2023-12-20T14:54:25;8.62;94.53
66343;DHT22;53144;51.524;5.080;2023-12-20T14:56:50;8.62;94.54
66343;DHT22;53144;51.524;5.080;2023-12-20T14:59:16;8.62;94.20
66343;DHT22;53144;51.524;5.080;2023-12-20T15:01:41;8.68;93.84
66343;DHT22;53144;51.524;5.080;2023-12-20T15:04:08;8.65;94.11
66343;DHT22;53144;51.524;5.080;2023-12-20T15:06:33;8.72;94.13
66343;DHT22;53144;51.524;5.080;2023-12-20T15:08:59;8.72;93.98
66343;DHT22;53144;51.524;5.080;2023-12-20T15:11:25;8.66;93.94
66343;DHT22;53144;51.524;5.080;2023-12-20T15:13:53;8.66;94.03
66343;DHT22;53144;51.524;5.080;2023-12-20T15:16:23;8.69;94.25
66343;DHT22;53144;51.524;5.080;2023-12-20T15:18:49;8.72;93.69
66343;DHT22;53144;51.524;5.080;2023-12-20T15:21:17;8.73;93.64
66343;DHT22;53144;51.524;5.080;2023-12-20T15:23:43;8.69;94.27
66343;DHT22;53144;51.524;5.080;2023-12-20T15:26:24;8.62;94.39
66343;DHT22;53144;51.524;5.080;2023-12-20T15:28:50;8.66;94.40
66343;DHT22;53144;51.524;5.080;2023-12-20T15:31:15;8.69;94.27
66343;DHT22;53144;51.524;5.080;2023-12-20T15:33:41;8.65;94.94
66343;DHT22;53144;51.524;5.080;2023-12-20T15:36:06;8.60;94.93
66343;DHT22;53144;51.524;5.080;2023-12-20T15:38:33;8.63;95.16
66343;DHT22;53144;51.524;5.080;2023-12-20T15:40:59;8.63;94.95
66343;DHT22;53144;51.524;5.080;2023-12-20T15:43:33;8.60;95.22
66343;DHT22;53144;51.524;5.080;2023-12-20T15:45:58;8.56;95.69